Athol, MA (01331)

6:58 AM EDT on April 28, 2017 (GMT -0400)
Harvard Ave, Athol | | Change Station

Elev 539 ft 42.58 °N, 72.24 °W | Updated 7 seconds ago

Fog
Fog
61.5 °F
Feels Like 61.5 °F
N
0.0
Wind Variable Wind from North
Gusts 0.0 mph

Today
High -- | Low -- °F
--% Chance of Precip.
Yesterday
High -- | Low -- °F
Precip. -- in
Pressure 29.93 in
Visibility 2.5 miles
Clouds Overcast 600 ft
Dew Point 56 °F
Humidity 82%
Rainfall 0.02 in
Snow Depth Not available.
5:47 AM 7:45 PM
Waxing Crescent, 6% visible
METAR KORE 281052Z AUTO 14003KT 2 1/2SM BR OVC006 14/14 A2992 RMK AO2 RAB00E25 CIG 002V008 SLP133 P0002 T01440144 TSNO
Pressure 29.93 in
Visibility 2.5 miles
Clouds Overcast 600 ft
Dew Point 56 °F
Humidity 82%
Rainfall 0.02 in
Snow Depth Not available.
5:47 AM 7:45 PM
Waxing Crescent, 6% visible
METAR KORE 281052Z AUTO 14003KT 2 1/2SM BR OVC006 14/14 A2992 RMK AO2 RAB00E25 CIG 002V008 SLP133 P0002 T01440144 TSNO

Get Severe Weather Alerts

Thanks for signing up!

Be on the lookout for a verification email in your inbox.

You'll start receiving the daily forecast at 8 AM.

×

10-Day Weather Forecast

Almanac

Astronomy

Apr. 28, 2017 Rise Set
Actual Time
Civil Twilight
Nautical Twilight
Astronomical Twilight
Moon
Length of Visible Light
Length of Day
Tomorrow will be .
, % of the Moon is Illuminated

Today's Extremes

State Highs State Lows

Community

WunderPhotos

WunderBlog® & News

Nearby

Air Quality

  Air Quality AQ Index Pollutant
Not available.

Snow Depth

Station Depth Elevation

Earthquake Activity

City Distance Mag. Time & Date
Minimum magnitude displayed is 2.5.

Coastal Water Temperatures

Place Temperature

Stations

Nearby Weather Stations

Station Location Temp. Windchill Dew Point Humidity Wind Precip. Elev Updated Type
                   

Watches & Warnings

There are currently no watches in effect.